sensor_id;sensor_type;location;lat;lon;timestamp;P1;durP1;ratioP1;P2;durP2;ratioP2
11504;SDS011;5809;53.262;10.408;2023-12-20T00:00:21;17.10;;;3.63;;
11504;SDS011;5809;53.262;10.408;2023-12-20T00:02:48;10.93;;;3.23;;
11504;SDS011;5809;53.262;10.408;2023-12-20T00:05:15;21.93;;;4.03;;
11504;SDS011;5809;53.262;10.408;2023-12-20T00:07:42;19.97;;;3.67;;
11504;SDS011;5809;53.262;10.408;2023-12-20T00:10:09;14.07;;;3.60;;
11504;SDS011;5809;53.262;10.408;2023-12-20T00:12:39;18.77;;;4.10;;
11504;SDS011;5809;53.262;10.408;2023-12-20T00:15:06;10.83;;;3.40;;
11504;SDS011;5809;53.262;10.408;2023-12-20T00:17:33;17.97;;;3.63;;
11504;SDS011;5809;53.262;10.408;2023-12-20T00:20:00;19.20;;;3.33;;
11504;SDS011;5809;53.262;10.408;2023-12-20T00:22:27;16.73;;;2.90;;
11504;SDS011;5809;53.262;10.408;2023-12-20T00:24:54;21.23;;;4.23;;
11504;SDS011;5809;53.262;10.408;2023-12-20T00:27:21;19.47;;;3.70;;
11504;SDS011;5809;53.262;10.408;2023-12-20T00:29:49;15.50;;;3.10;;
11504;SDS011;5809;53.262;10.408;2023-12-20T00:32:16;15.73;;;3.00;;
11504;SDS011;5809;53.262;10.408;2023-12-20T00:34:43;17.53;;;3.67;;
11504;SDS011;5809;53.262;10.408;2023-12-20T00:37:10;15.40;;;3.30;;
11504;SDS011;5809;53.262;10.408;2023-12-20T00:39:37;17.07;;;3.20;;
11504;SDS011;5809;53.262;10.408;2023-12-20T00:42:04;20.10;;;3.30;;
11504;SDS011;5809;53.262;10.408;2023-12-20T00:44:31;12.37;;;2.80;;
11504;SDS011;5809;53.262;10.408;2023-12-20T00:47:00;14.17;;;3.53;;
11504;SDS011;5809;53.262;10.408;2023-12-20T00:49:27;22.63;;;3.97;;
11504;SDS011;5809;53.262;10.408;2023-12-20T00:51:54;17.40;;;2.90;;
11504;SDS011;5809;53.262;10.408;2023-12-20T00:54:21;13.60;;;3.13;;
11504;SDS011;5809;53.262;10.408;2023-12-20T00:56:48;19.23;;;3.37;;
11504;SDS011;5809;53.262;10.408;2023-12-20T00:59:15;14.17;;;2.70;;
11504;SDS011;5809;53.262;10.408;2023-12-20T01:01:43;18.03;;;3.17;;
11504;SDS011;5809;53.262;10.408;2023-12-20T01:04:11;15.37;;;2.70;;
11504;SDS011;5809;53.262;10.408;2023-12-20T01:06:38;17.13;;;3.30;;
11504;SDS011;5809;53.262;10.408;2023-12-20T01:09:05;16.73;;;3.33;;
11504;SDS011;5809;53.262;10.408;2023-12-20T01:11:32;19.30;;;3.13;;
11504;SDS011;5809;53.262;10.408;2023-12-20T01:13:59;16.53;;;3.57;;
11504;SDS011;5809;53.262;10.408;2023-12-20T01:16:26;14.57;;;2.83;;
11504;SDS011;5809;53.262;10.408;2023-12-20T01:18:53;18.80;;;3.20;;
11504;SDS011;5809;53.262;10.408;2023-12-20T01:21:21;19.57;;;3.30;;
11504;SDS011;5809;53.262;10.408;2023-12-20T01:23:48;27.23;;;3.67;;
11504;SDS011;5809;53.262;10.408;2023-12-20T01:26:15;19.43;;;3.30;;
11504;SDS011;5809;53.262;10.408;2023-12-20T01:28:42;21.60;;;3.87;;
11504;SDS011;5809;53.262;10.408;2023-12-20T01:31:09;15.97;;;2.87;;
11504;SDS011;5809;53.262;10.408;2023-12-20T01:33:36;22.10;;;3.37;;
11504;SDS011;5809;53.262;10.408;2023-12-20T01:36:03;20.53;;;3.70;;
11504;SDS011;5809;53.262;10.408;2023-12-20T01:38:31;20.67;;;2.97;;
11504;SDS011;5809;53.262;10.408;2023-12-20T01:40:58;17.27;;;3.53;;
11504;SDS011;5809;53.262;10.408;2023-12-20T01:43:25;20.80;;;3.60;;
11504;SDS011;5809;53.262;10.408;2023-12-20T01:45:53;16.73;;;3.30;;
11504;SDS011;5809;53.262;10.408;2023-12-20T01:48:23;20.50;;;2.93;;
11504;SDS011;5809;53.262;10.408;2023-12-20T01:50:51;15.97;;;3.73;;
11504;SDS011;5809;53.262;10.408;2023-12-20T01:53:19;18.17;;;3.33;;
11504;SDS011;5809;53.262;10.408;2023-12-20T01:55:49;17.63;;;3.90;;
11504;SDS011;5809;53.262;10.408;2023-12-20T01:58:18;20.57;;;3.17;;
11504;SDS011;5809;53.262;10.408;2023-12-20T02:00:45;18.07;;;3.00;;
11504;SDS011;5809;53.262;10.408;2023-12-20T02:03:13;11.53;;;3.00;;
11504;SDS011;5809;53.262;10.408;2023-12-20T02:05:40;22.87;;;3.30;;
11504;SDS011;5809;53.262;10.408;2023-12-20T02:08:07;17.77;;;3.77;;
11504;SDS011;5809;53.262;10.408;2023-12-20T02:10:34;17.37;;;3.47;;
11504;SDS011;5809;53.262;10.408;2023-12-20T02:13:01;19.90;;;3.80;;
11504;SDS011;5809;53.262;10.408;2023-12-20T02:15:28;15.03;;;3.40;;
11504;SDS011;5809;53.262;10.408;2023-12-20T02:17:55;21.00;;;3.47;;
11504;SDS011;5809;53.262;10.408;2023-12-20T02:20:21;17.80;;;3.33;;
11504;SDS011;5809;53.262;10.408;2023-12-20T02:22:50;15.33;;;3.67;;
11504;SDS011;5809;53.262;10.408;2023-12-20T02:25:16;14.57;;;3.77;;
11504;SDS011;5809;53.262;10.408;2023-12-20T02:27:43;19.17;;;3.93;;
11504;SDS011;5809;53.262;10.408;2023-12-20T02:30:11;24.57;;;5.03;;
11504;SDS011;5809;53.262;10.408;2023-12-20T02:32:38;25.57;;;4.40;;
11504;SDS011;5809;53.262;10.408;2023-12-20T02:35:05;18.63;;;4.33;;
11504;SDS011;5809;53.262;10.408;2023-12-20T02:37:32;18.53;;;4.73;;
11504;SDS011;5809;53.262;10.408;2023-12-20T02:40:01;23.47;;;5.60;;
11504;SDS011;5809;53.262;10.408;2023-12-20T02:42:29;19.93;;;5.93;;
11504;SDS011;5809;53.262;10.408;2023-12-20T02:44:56;22.80;;;5.53;;
11504;SDS011;5809;53.262;10.408;2023-12-20T02:47:23;22.33;;;5.77;;
11504;SDS011;5809;53.262;10.408;2023-12-20T02:49:50;17.80;;;5.70;;
11504;SDS011;5809;53.262;10.408;2023-12-20T02:52:18;16.97;;;6.23;;
11504;SDS011;5809;53.262;10.408;2023-12-20T02:54:44;22.47;;;5.97;;
11504;SDS011;5809;53.262;10.408;2023-12-20T02:57:13;21.33;;;5.57;;
11504;SDS011;5809;53.262;10.408;2023-12-20T02:59:40;21.77;;;6.50;;
11504;SDS011;5809;53.262;10.408;2023-12-20T03:02:06;15.17;;;5.63;;
11504;SDS011;5809;53.262;10.408;2023-12-20T03:04:34;22.83;;;6.93;;
11504;SDS011;5809;53.262;10.408;2023-12-20T03:07:01;15.50;;;6.67;;
11504;SDS011;5809;53.262;10.408;2023-12-20T03:09:27;20.27;;;6.37;;
11504;SDS011;5809;53.262;10.408;2023-12-20T03:11:54;17.17;;;6.77;;
11504;SDS011;5809;53.262;10.408;2023-12-20T03:14:22;20.50;;;6.37;;
11504;SDS011;5809;53.262;10.408;2023-12-20T03:16:49;17.50;;;6.73;;
11504;SDS011;5809;53.262;10.408;2023-12-20T03:19:17;20.10;;;5.67;;
11504;SDS011;5809;53.262;10.408;2023-12-20T03:21:44;17.30;;;6.00;;
11504;SDS011;5809;53.262;10.408;2023-12-20T03:24:11;21.43;;;6.53;;
11504;SDS011;5809;53.262;10.408;2023-12-20T03:26:38;18.77;;;6.37;;
11504;SDS011;5809;53.262;10.408;2023-12-20T03:29:05;21.60;;;5.43;;
11504;SDS011;5809;53.262;10.408;2023-12-20T03:31:33;17.90;;;5.60;;
11504;SDS011;5809;53.262;10.408;2023-12-20T03:34:00;12.47;;;4.67;;
11504;SDS011;5809;53.262;10.408;2023-12-20T03:36:27;16.37;;;5.47;;
11504;SDS011;5809;53.262;10.408;2023-12-20T03:38:54;14.47;;;4.73;;
11504;SDS011;5809;53.262;10.408;2023-12-20T03:41:21;20.57;;;4.93;;
11504;SDS011;5809;53.262;10.408;2023-12-20T03:43:48;16.50;;;4.07;;
11504;SDS011;5809;53.262;10.408;2023-12-20T03:46:15;12.50;;;3.83;;
11504;SDS011;5809;53.262;10.408;2023-12-20T03:48:43;12.87;;;4.00;;
11504;SDS011;5809;53.262;10.408;2023-12-20T03:51:10;9.70;;;3.60;;
11504;SDS011;5809;53.262;10.408;2023-12-20T03:53:37;13.07;;;3.63;;
11504;SDS011;5809;53.262;10.408;2023-12-20T03:56:05;14.07;;;3.63;;
11504;SDS011;5809;53.262;10.408;2023-12-20T03:58:32;19.20;;;3.93;;
11504;SDS011;5809;53.262;10.408;2023-12-20T04:00:59;15.87;;;3.10;;
11504;SDS011;5809;53.262;10.408;2023-12-20T04:03:26;12.03;;;3.23;;
11504;SDS011;5809;53.262;10.408;2023-12-20T04:05:54;11.33;;;3.00;;
11504;SDS011;5809;53.262;10.408;2023-12-20T04:08:21;12.43;;;3.73;;
11504;SDS011;5809;53.262;10.408;2023-12-20T04:10:48;12.77;;;3.20;;
11504;SDS011;5809;53.262;10.408;2023-12-20T04:13:16;12.97;;;2.97;;
11504;SDS011;5809;53.262;10.408;2023-12-20T04:15:43;14.93;;;3.63;;
11504;SDS011;5809;53.262;10.408;2023-12-20T04:18:10;12.73;;;3.10;;
11504;SDS011;5809;53.262;10.408;2023-12-20T04:20:37;10.47;;;3.13;;
11504;SDS011;5809;53.262;10.408;2023-12-20T04:23:05;13.83;;;3.50;;
11504;SDS011;5809;53.262;10.408;2023-12-20T04:25:32;16.47;;;3.97;;
11504;SDS011;5809;53.262;10.408;2023-12-20T04:27:58;18.87;;;3.97;;
11504;SDS011;5809;53.262;10.408;2023-12-20T04:30:25;13.97;;;3.47;;
11504;SDS011;5809;53.262;10.408;2023-12-20T04:32:52;9.80;;;3.00;;
11504;SDS011;5809;53.262;10.408;2023-12-20T04:35:19;11.47;;;3.43;;
11504;SDS011;5809;53.262;10.408;2023-12-20T04:37:46;12.40;;;3.20;;
11504;SDS011;5809;53.262;10.408;2023-12-20T04:40:15;11.17;;;3.00;;
11504;SDS011;5809;53.262;10.408;2023-12-20T04:42:42;13.17;;;3.63;;
11504;SDS011;5809;53.262;10.408;2023-12-20T04:45:09;10.07;;;3.27;;
11504;SDS011;5809;53.262;10.408;2023-12-20T04:47:38;18.47;;;3.47;;
11504;SDS011;5809;53.262;10.408;2023-12-20T04:50:05;12.70;;;3.27;;
11504;SDS011;5809;53.262;10.408;2023-12-20T04:52:33;15.67;;;3.80;;
11504;SDS011;5809;53.262;10.408;2023-12-20T04:55:00;13.40;;;3.53;;
11504;SDS011;5809;53.262;10.408;2023-12-20T04:57:28;14.73;;;3.57;;
11504;SDS011;5809;53.262;10.408;2023-12-20T04:59:55;11.37;;;3.70;;
11504;SDS011;5809;53.262;10.408;2023-12-20T05:02:21;11.63;;;3.80;;
11504;SDS011;5809;53.262;10.408;2023-12-20T05:04:48;14.10;;;3.70;;
11504;SDS011;5809;53.262;10.408;2023-12-20T05:07:15;13.87;;;3.20;;
11504;SDS011;5809;53.262;10.408;2023-12-20T05:09:42;13.07;;;3.50;;
11504;SDS011;5809;53.262;10.408;2023-12-20T05:12:09;12.30;;;3.33;;
11504;SDS011;5809;53.262;10.408;2023-12-20T05:14:37;18.83;;;4.07;;
11504;SDS011;5809;53.262;10.408;2023-12-20T05:17:04;12.07;;;3.27;;
11504;SDS011;5809;53.262;10.408;2023-12-20T05:19:31;17.07;;;3.73;;
11504;SDS011;5809;53.262;10.408;2023-12-20T05:22:00;15.30;;;3.33;;
11504;SDS011;5809;53.262;10.408;2023-12-20T05:24:27;10.37;;;3.67;;
11504;SDS011;5809;53.262;10.408;2023-12-20T05:26:54;10.63;;;3.23;;
11504;SDS011;5809;53.262;10.408;2023-12-20T05:29:21;10.83;;;3.30;;
11504;SDS011;5809;53.262;10.408;2023-12-20T05:31:50;13.00;;;3.47;;
11504;SDS011;5809;53.262;10.408;2023-12-20T05:34:16;16.47;;;4.20;;
11504;SDS011;5809;53.262;10.408;2023-12-20T05:36:44;15.77;;;3.47;;
11504;SDS011;5809;53.262;10.408;2023-12-20T05:39:11;13.80;;;3.33;;
11504;SDS011;5809;53.262;10.408;2023-12-20T05:41:37;17.27;;;3.53;;
11504;SDS011;5809;53.262;10.408;2023-12-20T05:44:04;13.83;;;3.83;;
11504;SDS011;5809;53.262;10.408;2023-12-20T05:46:31;15.77;;;3.77;;
11504;SDS011;5809;53.262;10.408;2023-12-20T05:49:00;17.30;;;4.50;;
11504;SDS011;5809;53.262;10.408;2023-12-20T05:51:27;12.17;;;3.93;;
11504;SDS011;5809;53.262;10.408;2023-12-20T05:53:53;17.43;;;4.00;;
11504;SDS011;5809;53.262;10.408;2023-12-20T05:56:21;17.27;;;4.17;;
11504;SDS011;5809;53.262;10.408;2023-12-20T05:58:48;17.77;;;3.90;;
11504;SDS011;5809;53.262;10.408;2023-12-20T06:01:15;12.87;;;3.60;;
11504;SDS011;5809;53.262;10.408;2023-12-20T06:03:42;14.20;;;3.33;;
11504;SDS011;5809;53.262;10.408;2023-12-20T06:06:12;16.77;;;3.20;;
11504;SDS011;5809;53.262;10.408;2023-12-20T06:08:39;13.57;;;3.30;;
11504;SDS011;5809;53.262;10.408;2023-12-20T06:11:06;15.53;;;4.20;;
11504;SDS011;5809;53.262;10.408;2023-12-20T06:13:33;15.00;;;4.33;;
11504;SDS011;5809;53.262;10.408;2023-12-20T06:16:00;17.13;;;4.30;;
11504;SDS011;5809;53.262;10.408;2023-12-20T06:18:27;12.77;;;4.07;;
11504;SDS011;5809;53.262;10.408;2023-12-20T06:20:54;9.90;;;3.67;;
11504;SDS011;5809;53.262;10.408;2023-12-20T06:23:23;11.00;;;3.80;;
11504;SDS011;5809;53.262;10.408;2023-12-20T06:25:50;16.93;;;4.57;;
11504;SDS011;5809;53.262;10.408;2023-12-20T06:28:16;14.47;;;4.33;;
11504;SDS011;5809;53.262;10.408;2023-12-20T06:30:44;15.33;;;4.77;;
11504;SDS011;5809;53.262;10.408;2023-12-20T06:33:12;14.23;;;4.93;;
11504;SDS011;5809;53.262;10.408;2023-12-20T06:35:39;17.20;;;4.83;;
11504;SDS011;5809;53.262;10.408;2023-12-20T06:38:06;15.23;;;4.80;;
11504;SDS011;5809;53.262;10.408;2023-12-20T06:40:35;13.40;;;4.70;;
11504;SDS011;5809;53.262;10.408;2023-12-20T06:43:02;16.77;;;4.30;;
11504;SDS011;5809;53.262;10.408;2023-12-20T06:45:31;15.67;;;4.50;;
11504;SDS011;5809;53.262;10.408;2023-12-20T06:47:58;16.80;;;4.73;;
11504;SDS011;5809;53.262;10.408;2023-12-20T06:50:26;21.87;;;5.03;;
11504;SDS011;5809;53.262;10.408;2023-12-20T06:52:53;13.77;;;4.60;;
11504;SDS011;5809;53.262;10.408;2023-12-20T06:55:20;15.73;;;4.27;;
11504;SDS011;5809;53.262;10.408;2023-12-20T06:57:48;16.87;;;4.33;;
11504;SDS011;5809;53.262;10.408;2023-12-20T07:00:15;13.37;;;3.70;;
11504;SDS011;5809;53.262;10.408;2023-12-20T07:02:43;13.33;;;4.10;;
11504;SDS011;5809;53.262;10.408;2023-12-20T07:05:10;12.47;;;3.87;;
11504;SDS011;5809;53.262;10.408;2023-12-20T07:07:37;15.87;;;3.93;;
11504;SDS011;5809;53.262;10.408;2023-12-20T07:10:04;16.17;;;3.60;;
11504;SDS011;5809;53.262;10.408;2023-12-20T07:12:32;12.93;;;3.57;;
11504;SDS011;5809;53.262;10.408;2023-12-20T07:15:01;16.63;;;4.40;;
11504;SDS011;5809;53.262;10.408;2023-12-20T07:17:28;17.07;;;3.47;;
11504;SDS011;5809;53.262;10.408;2023-12-20T07:19:55;18.27;;;3.87;;
11504;SDS011;5809;53.262;10.408;2023-12-20T07:22:22;12.57;;;3.50;;
11504;SDS011;5809;53.262;10.408;2023-12-20T07:24:49;17.70;;;4.07;;
11504;SDS011;5809;53.262;10.408;2023-12-20T07:27:17;11.63;;;3.20;;
11504;SDS011;5809;53.262;10.408;2023-12-20T07:29:44;13.13;;;3.77;;
11504;SDS011;5809;53.262;10.408;2023-12-20T07:32:13;13.20;;;3.83;;
11504;SDS011;5809;53.262;10.408;2023-12-20T07:34:39;12.73;;;3.77;;
11504;SDS011;5809;53.262;10.408;2023-12-20T07:37:06;14.00;;;3.93;;
11504;SDS011;5809;53.262;10.408;2023-12-20T07:39:35;13.87;;;3.90;;
11504;SDS011;5809;53.262;10.408;2023-12-20T07:42:02;15.83;;;4.27;;
11504;SDS011;5809;53.262;10.408;2023-12-20T07:44:29;15.13;;;3.60;;
11504;SDS011;5809;53.262;10.408;2023-12-20T07:46:56;15.07;;;3.77;;
11504;SDS011;5809;53.262;10.408;2023-12-20T07:49:24;12.20;;;3.57;;
11504;SDS011;5809;53.262;10.408;2023-12-20T07:51:51;15.07;;;3.63;;
11504;SDS011;5809;53.262;10.408;2023-12-20T07:54:18;14.27;;;3.63;;
11504;SDS011;5809;53.262;10.408;2023-12-20T07:56:46;15.27;;;3.40;;
11504;SDS011;5809;53.262;10.408;2023-12-20T07:59:13;13.77;;;3.43;;
11504;SDS011;5809;53.262;10.408;2023-12-20T08:01:40;16.30;;;3.87;;
11504;SDS011;5809;53.262;10.408;2023-12-20T08:04:07;18.57;;;2.90;;
11504;SDS011;5809;53.262;10.408;2023-12-20T08:06:36;18.07;;;2.97;;
11504;SDS011;5809;53.262;10.408;2023-12-20T08:09:02;11.30;;;3.53;;
11504;SDS011;5809;53.262;10.408;2023-12-20T08:11:29;19.47;;;3.70;;
11504;SDS011;5809;53.262;10.408;2023-12-20T08:13:56;16.30;;;3.83;;
11504;SDS011;5809;53.262;10.408;2023-12-20T08:16:23;15.30;;;3.83;;
11504;SDS011;5809;53.262;10.408;2023-12-20T08:18:50;35.57;;;12.50;;
11504;SDS011;5809;53.262;10.408;2023-12-20T08:21:17;18.77;;;4.20;;
11504;SDS011;5809;53.262;10.408;2023-12-20T08:23:48;17.93;;;4.20;;
11504;SDS011;5809;53.262;10.408;2023-12-20T08:26:18;22.57;;;4.27;;
11504;SDS011;5809;53.262;10.408;2023-12-20T08:28:47;22.10;;;4.60;;
11504;SDS011;5809;53.262;10.408;2023-12-20T08:31:14;18.20;;;3.83;;
11504;SDS011;5809;53.262;10.408;2023-12-20T08:33:41;21.97;;;4.40;;
11504;SDS011;5809;53.262;10.408;2023-12-20T08:36:09;16.07;;;4.43;;
11504;SDS011;5809;53.262;10.408;2023-12-20T08:38:35;16.70;;;3.73;;
11504;SDS011;5809;53.262;10.408;2023-12-20T08:41:04;16.33;;;4.03;;
11504;SDS011;5809;53.262;10.408;2023-12-20T08:43:31;23.17;;;4.33;;
11504;SDS011;5809;53.262;10.408;2023-12-20T08:45:57;14.07;;;3.87;;
11504;SDS011;5809;53.262;10.408;2023-12-20T08:48:24;21.70;;;4.27;;
11504;SDS011;5809;53.262;10.408;2023-12-20T08:50:51;16.63;;;5.10;;
11504;SDS011;5809;53.262;10.408;2023-12-20T08:53:18;16.90;;;3.90;;
11504;SDS011;5809;53.262;10.408;2023-12-20T08:55:46;16.47;;;4.00;;
11504;SDS011;5809;53.262;10.408;2023-12-20T08:58:14;17.73;;;4.03;;
11504;SDS011;5809;53.262;10.408;2023-12-20T09:00:42;15.73;;;4.00;;
11504;SDS011;5809;53.262;10.408;2023-12-20T09:03:08;17.00;;;4.37;;
11504;SDS011;5809;53.262;10.408;2023-12-20T09:05:35;15.27;;;3.70;;
11504;SDS011;5809;53.262;10.408;2023-12-20T09:08:04;14.30;;;3.33;;
11504;SDS011;5809;53.262;10.408;2023-12-20T09:10:32;18.13;;;3.90;;
11504;SDS011;5809;53.262;10.408;2023-12-20T09:12:59;14.27;;;3.90;;
11504;SDS011;5809;53.262;10.408;2023-12-20T09:15:28;14.87;;;3.23;;
11504;SDS011;5809;53.262;10.408;2023-12-20T09:17:55;15.37;;;4.03;;
11504;SDS011;5809;53.262;10.408;2023-12-20T09:20:23;14.97;;;3.33;;
11504;SDS011;5809;53.262;10.408;2023-12-20T09:22:50;14.93;;;3.60;;
11504;SDS011;5809;53.262;10.408;2023-12-20T09:25:17;18.07;;;3.67;;
11504;SDS011;5809;53.262;10.408;2023-12-20T09:27:44;18.83;;;4.57;;
11504;SDS011;5809;53.262;10.408;2023-12-20T09:30:11;16.80;;;3.93;;
11504;SDS011;5809;53.262;10.408;2023-12-20T09:32:40;16.37;;;4.23;;
11504;SDS011;5809;53.262;10.408;2023-12-20T09:35:07;18.93;;;4.37;;
11504;SDS011;5809;53.262;10.408;2023-12-20T09:37:34;25.40;;;5.10;;
11504;SDS011;5809;53.262;10.408;2023-12-20T09:40:01;17.07;;;4.20;;
11504;SDS011;5809;53.262;10.408;2023-12-20T09:42:29;18.17;;;4.13;;
11504;SDS011;5809;53.262;10.408;2023-12-20T09:45:04;17.27;;;4.27;;
11504;SDS011;5809;53.262;10.408;2023-12-20T09:47:35;20.07;;;4.77;;
11504;SDS011;5809;53.262;10.408;2023-12-20T09:50:03;23.10;;;4.80;;
11504;SDS011;5809;53.262;10.408;2023-12-20T09:52:31;26.87;;;5.07;;
11504;SDS011;5809;53.262;10.408;2023-12-20T09:54:58;21.90;;;4.87;;
11504;SDS011;5809;53.262;10.408;2023-12-20T09:57:29;21.83;;;4.77;;
11504;SDS011;5809;53.262;10.408;2023-12-20T09:59:56;23.97;;;5.67;;
11504;SDS011;5809;53.262;10.408;2023-12-20T10:02:23;17.07;;;5.30;;
11504;SDS011;5809;53.262;10.408;2023-12-20T10:04:52;12.33;;;2.87;;
11504;SDS011;5809;53.262;10.408;2023-12-20T10:07:21;6.63;;;1.67;;
11504;SDS011;5809;53.262;10.408;2023-12-20T10:09:48;7.00;;;1.40;;
11504;SDS011;5809;53.262;10.408;2023-12-20T10:12:17;3.00;;;1.23;;
11504;SDS011;5809;53.262;10.408;2023-12-20T10:14:44;4.17;;;1.10;;
11504;SDS011;5809;53.262;10.408;2023-12-20T10:17:11;7.50;;;1.80;;
11504;SDS011;5809;53.262;10.408;2023-12-20T10:19:38;2.80;;;0.93;;
11504;SDS011;5809;53.262;10.408;2023-12-20T10:22:05;4.53;;;1.40;;
11504;SDS011;5809;53.262;10.408;2023-12-20T10:24:33;3.53;;;1.10;;
11504;SDS011;5809;53.262;10.408;2023-12-20T10:27:03;4.27;;;1.30;;
11504;SDS011;5809;53.262;10.408;2023-12-20T10:29:33;2.87;;;1.03;;
11504;SDS011;5809;53.262;10.408;2023-12-20T10:32:12;4.27;;;1.53;;
11504;SDS011;5809;53.262;10.408;2023-12-20T10:34:48;4.80;;;1.17;;
11504;SDS011;5809;53.262;10.408;2023-12-20T10:37:15;2.17;;;1.10;;
11504;SDS011;5809;53.262;10.408;2023-12-20T10:39:44;5.00;;;1.20;;
11504;SDS011;5809;53.262;10.408;2023-12-20T10:42:16;6.63;;;2.47;;
11504;SDS011;5809;53.262;10.408;2023-12-20T10:44:44;9.57;;;5.63;;
11504;SDS011;5809;53.262;10.408;2023-12-20T10:47:12;2.87;;;1.10;;
11504;SDS011;5809;53.262;10.408;2023-12-20T10:49:40;2.10;;;0.83;;
11504;SDS011;5809;53.262;10.408;2023-12-20T10:52:07;4.60;;;0.80;;
11504;SDS011;5809;53.262;10.408;2023-12-20T10:54:34;3.50;;;0.90;;
11504;SDS011;5809;53.262;10.408;2023-12-20T10:57:03;2.37;;;0.60;;
11504;SDS011;5809;53.262;10.408;2023-12-20T10:59:32;2.10;;;0.60;;
11504;SDS011;5809;53.262;10.408;2023-12-20T11:02:02;1.33;;;0.60;;
11504;SDS011;5809;53.262;10.408;2023-12-20T11:07:17;1.30;;;0.57;;
11504;SDS011;5809;53.262;10.408;2023-12-20T11:09:51;2.83;;;0.73;;
11504;SDS011;5809;53.262;10.408;2023-12-20T11:12:31;2.90;;;1.03;;
11504;SDS011;5809;53.262;10.408;2023-12-20T11:15:03;3.53;;;0.87;;
11504;SDS011;5809;53.262;10.408;2023-12-20T11:17:31;4.37;;;1.03;;
11504;SDS011;5809;53.262;10.408;2023-12-20T11:20:05;3.37;;;0.83;;
11504;SDS011;5809;53.262;10.408;2023-12-20T11:22:35;3.27;;;1.13;;
11504;SDS011;5809;53.262;10.408;2023-12-20T11:25:03;3.37;;;0.90;;
11504;SDS011;5809;53.262;10.408;2023-12-20T11:27:33;3.27;;;0.97;;
11504;SDS011;5809;53.262;10.408;2023-12-20T11:30:00;3.77;;;1.00;;
11504;SDS011;5809;53.262;10.408;2023-12-20T11:32:31;4.67;;;0.90;;
11504;SDS011;5809;53.262;10.408;2023-12-20T11:35:00;5.60;;;1.00;;
11504;SDS011;5809;53.262;10.408;2023-12-20T11:37:42;8.03;;;1.27;;
11504;SDS011;5809;53.262;10.408;2023-12-20T11:40:11;6.10;;;1.17;;
11504;SDS011;5809;53.262;10.408;2023-12-20T11:42:41;4.10;;;1.13;;
11504;SDS011;5809;53.262;10.408;2023-12-20T11:45:09;7.73;;;1.37;;
11504;SDS011;5809;53.262;10.408;2023-12-20T11:47:36;7.00;;;1.33;;
11504;SDS011;5809;53.262;10.408;2023-12-20T11:50:04;9.50;;;1.40;;
11504;SDS011;5809;53.262;10.408;2023-12-20T11:52:31;5.90;;;1.37;;
11504;SDS011;5809;53.262;10.408;2023-12-20T11:54:58;8.43;;;1.77;;
11504;SDS011;5809;53.262;10.408;2023-12-20T11:57:25;5.17;;;1.00;;
11504;SDS011;5809;53.262;10.408;2023-12-20T11:59:53;8.33;;;1.40;;
11504;SDS011;5809;53.262;10.408;2023-12-20T12:02:21;6.53;;;1.50;;
11504;SDS011;5809;53.262;10.408;2023-12-20T12:04:48;5.00;;;1.60;;
11504;SDS011;5809;53.262;10.408;2023-12-20T12:07:16;6.50;;;1.67;;
11504;SDS011;5809;53.262;10.408;2023-12-20T12:09:43;4.87;;;1.50;;
11504;SDS011;5809;53.262;10.408;2023-12-20T12:12:09;5.63;;;1.60;;
11504;SDS011;5809;53.262;10.408;2023-12-20T12:14:37;8.87;;;1.40;;
11504;SDS011;5809;53.262;10.408;2023-12-20T12:17:06;9.57;;;2.00;;
11504;SDS011;5809;53.262;10.408;2023-12-20T12:19:36;7.00;;;1.43;;
11504;SDS011;5809;53.262;10.408;2023-12-20T12:22:04;4.53;;;1.43;;
11504;SDS011;5809;53.262;10.408;2023-12-20T12:24:32;7.47;;;1.70;;
11504;SDS011;5809;53.262;10.408;2023-12-20T12:26:59;9.53;;;1.70;;
11504;SDS011;5809;53.262;10.408;2023-12-20T12:29:27;8.87;;;2.00;;
11504;SDS011;5809;53.262;10.408;2023-12-20T12:31:54;7.97;;;1.90;;
11504;SDS011;5809;53.262;10.408;2023-12-20T12:34:22;8.57;;;2.07;;
11504;SDS011;5809;53.262;10.408;2023-12-20T12:36:49;5.33;;;1.70;;
11504;SDS011;5809;53.262;10.408;2023-12-20T12:39:17;7.90;;;1.63;;
11504;SDS011;5809;53.262;10.408;2023-12-20T12:41:44;6.40;;;2.00;;
11504;SDS011;5809;53.262;10.408;2023-12-20T12:44:11;8.43;;;1.40;;
11504;SDS011;5809;53.262;10.408;2023-12-20T12:46:38;9.20;;;1.80;;
11504;SDS011;5809;53.262;10.408;2023-12-20T12:49:05;9.50;;;1.60;;
11504;SDS011;5809;53.262;10.408;2023-12-20T12:51:33;6.27;;;1.33;;
11504;SDS011;5809;53.262;10.408;2023-12-20T12:54:00;5.90;;;1.50;;
11504;SDS011;5809;53.262;10.408;2023-12-20T12:56:27;6.80;;;2.03;;
11504;SDS011;5809;53.262;10.408;2023-12-20T12:58:54;7.20;;;1.77;;
11504;SDS011;5809;53.262;10.408;2023-12-20T13:01:21;7.57;;;2.00;;
11504;SDS011;5809;53.262;10.408;2023-12-20T13:03:48;7.53;;;1.53;;
11504;SDS011;5809;53.262;10.408;2023-12-20T13:06:15;6.43;;;1.67;;
11504;SDS011;5809;53.262;10.408;2023-12-20T13:08:44;4.17;;;1.43;;
11504;SDS011;5809;53.262;10.408;2023-12-20T13:11:11;8.20;;;1.50;;
11504;SDS011;5809;53.262;10.408;2023-12-20T13:13:38;7.85;;;1.48;;
11504;SDS011;5809;53.262;10.408;2023-12-20T13:16:05;4.97;;;1.70;;
11504;SDS011;5809;53.262;10.408;2023-12-20T13:18:32;6.05;;;2.20;;
11504;SDS011;5809;53.262;10.408;2023-12-20T13:20:59;10.60;;;4.18;;
11504;SDS011;5809;53.262;10.408;2023-12-20T13:23:26;6.50;;;3.58;;
11504;SDS011;5809;53.262;10.408;2023-12-20T13:25:54;4.97;;;1.30;;
11504;SDS011;5809;53.262;10.408;2023-12-20T13:28:21;4.40;;;1.40;;
11504;SDS011;5809;53.262;10.408;2023-12-20T13:30:48;5.82;;;1.25;;
11504;SDS011;5809;53.262;10.408;2023-12-20T13:33:15;4.50;;;1.30;;
11504;SDS011;5809;53.262;10.408;2023-12-20T13:35:42;8.70;;;1.73;;
11504;SDS011;5809;53.262;10.408;2023-12-20T13:38:08;7.22;;;1.70;;
11504;SDS011;5809;53.262;10.408;2023-12-20T13:40:35;9.60;;;1.43;;
11504;SDS011;5809;53.262;10.408;2023-12-20T13:43:04;6.13;;;1.40;;
11504;SDS011;5809;53.262;10.408;2023-12-20T13:45:31;10.77;;;2.30;;
11504;SDS011;5809;53.262;10.408;2023-12-20T13:47:58;7.60;;;1.63;;
11504;SDS011;5809;53.262;10.408;2023-12-20T13:50:25;8.33;;;1.90;;
11504;SDS011;5809;53.262;10.408;2023-12-20T13:52:52;6.63;;;2.00;;
11504;SDS011;5809;53.262;10.408;2023-12-20T13:55:19;11.47;;;2.13;;
11504;SDS011;5809;53.262;10.408;2023-12-20T13:57:50;12.23;;;2.33;;
11504;SDS011;5809;53.262;10.408;2023-12-20T14:00:18;11.03;;;2.47;;
11504;SDS011;5809;53.262;10.408;2023-12-20T14:02:45;12.40;;;2.53;;
11504;SDS011;5809;53.262;10.408;2023-12-20T14:05:13;13.10;;;2.70;;
11504;SDS011;5809;53.262;10.408;2023-12-20T14:07:42;7.53;;;2.60;;
11504;SDS011;5809;53.262;10.408;2023-12-20T14:10:10;15.50;;;2.97;;
11504;SDS011;5809;53.262;10.408;2023-12-20T14:12:38;16.20;;;3.77;;
11504;SDS011;5809;53.262;10.408;2023-12-20T14:15:05;12.60;;;2.77;;
11504;SDS011;5809;53.262;10.408;2023-12-20T14:17:37;9.60;;;2.57;;
11504;SDS011;5809;53.262;10.408;2023-12-20T14:20:04;13.50;;;3.20;;
11504;SDS011;5809;53.262;10.408;2023-12-20T14:22:32;12.70;;;3.07;;
11504;SDS011;5809;53.262;10.408;2023-12-20T14:24:59;18.27;;;2.90;;
11504;SDS011;5809;53.262;10.408;2023-12-20T14:27:26;13.60;;;3.10;;
11504;SDS011;5809;53.262;10.408;2023-12-20T14:29:53;11.60;;;3.37;;
11504;SDS011;5809;53.262;10.408;2023-12-20T14:32:20;14.33;;;3.37;;
11504;SDS011;5809;53.262;10.408;2023-12-20T14:34:49;14.50;;;2.77;;
11504;SDS011;5809;53.262;10.408;2023-12-20T14:37:15;13.50;;;3.10;;
11504;SDS011;5809;53.262;10.408;2023-12-20T14:39:42;13.37;;;2.97;;
11504;SDS011;5809;53.262;10.408;2023-12-20T14:42:09;15.60;;;3.60;;